Time;durP1;ratioP1;P1;durP2;ratioP2;P2;SDS_P1;SDS_P2;PMS_P1;PMS_P2;Temp;Humidity;BMP_temperature;BMP_pressure;BME280_temperature;BME280_humidity;BME280_pressure;Samples;Min_cycle;Max_cycle;Signal;HPM_P1;HPM_P2
2023/08/19 04:22:33;;;;;;;13.98;7.10;;;;;;;18.88;100.00;100006.72;5089455;28;20393;-70
2023/08/19 04:24:59;;;;;;;12.18;7.55;;;;;;;18.88;100.00;100018.34;5089433;28;20036;-71
2023/08/19 04:27:24;;;;;;;13.15;8.23;;;;;;;18.86;100.00;100015.06;5088028;28;20040;-70
2023/08/19 04:29:50;;;;;;;12.43;7.22;;;;;;;18.86;100.00;100020.47;5087736;28;20028;-70
2023/08/19 04:32:16;;;;;;;20.13;7.88;;;;;;;18.84;100.00;100019.03;5088034;28;20036;-70
2023/08/19 04:34:42;;;;;;;11.20;7.22;;;;;;;18.84;100.00;100021.72;5087735;28;20055;-69
2023/08/19 04:37:09;;;;;;;13.40;8.05;;;;;;;18.73;100.00;100020.69;5089200;28;20074;-69
2023/08/19 04:39:37;;;;;;;13.50;7.25;;;;;;;18.79;100.00;100027.84;5087481;28;20068;-70
2023/08/19 04:42:10;;;;;;;12.15;6.43;;;;;;;18.78;100.00;100028.06;5087772;28;20040;-70
2023/08/19 04:44:36;;;;;;;14.75;7.93;;;;;;;18.74;100.00;100021.50;5087697;28;20036;-69
2023/08/19 04:47:01;;;;;;;10.20;6.25;;;;;;;18.75;100.00;100036.63;5087662;28;20088;-70
2023/08/19 04:49:27;;;;;;;11.93;6.82;;;;;;;18.70;100.00;100024.66;5088702;28;20517;-69
2023/08/19 04:51:53;;;;;;;10.93;6.20;;;;;;;18.75;100.00;100029.34;5087618;28;20044;-69
2023/08/19 04:54:18;;;;;;;11.55;6.10;;;;;;;18.84;100.00;100035.22;5087684;28;20035;-68
2023/08/19 04:56:44;;;;;;;11.15;6.50;;;;;;;18.87;100.00;100038.28;5087512;28;20040;-69
2023/08/19 04:59:09;;;;;;;9.05;5.80;;;;;;;18.93;100.00;100031.16;5087095;28;20123;-69
2023/08/19 05:01:35;;;;;;;10.13;6.72;;;;;;;18.87;100.00;100037.47;5087378;28;20502;-68
2023/08/19 05:04:01;;;;;;;10.57;6.60;;;;;;;18.86;100.00;100042.06;5087417;28;20364;-69
2023/08/19 05:06:26;;;;;;;13.55;7.10;;;;;;;18.85;100.00;100048.50;5088676;28;20047;-69
2023/08/19 05:08:52;;;;;;;12.88;7.28;;;;;;;18.90;100.00;100053.19;5088411;28;20519;-69
2023/08/19 05:11:17;;;;;;;10.98;6.63;;;;;;;18.86;100.00;100054.72;5087346;28;20111;-69
2023/08/19 05:13:44;;;;;;;17.70;8.33;;;;;;;18.91;100.00;100046.75;5070497;28;20077;-69
2023/08/19 05:16:12;;;;;;;14.18;8.27;;;;;;;19.01;100.00;100051.56;5087078;28;20036;-69
2023/08/19 05:18:37;;;;;;;14.93;7.97;;;;;;;19.06;100.00;100060.63;5087032;28;20403;-69
2023/08/19 05:21:03;;;;;;;11.32;6.50;;;;;;;19.11;100.00;100049.13;5086833;28;20392;-69
2023/08/19 05:23:28;;;;;;;12.13;7.53;;;;;;;19.18;100.00;100055.22;5088376;28;20482;-68
2023/08/19 05:25:54;;;;;;;15.75;7.65;;;;;;;19.24;100.00;100062.41;5088242;28;20066;-69
2023/08/19 05:28:19;;;;;;;11.98;7.70;;;;;;;19.29;100.00;100064.38;5088089;28;20051;-68
2023/08/19 05:30:44;;;;;;;13.25;6.40;;;;;;;19.40;100.00;100063.56;5087979;28;20072;-68
2023/08/19 05:33:10;;;;;;;13.82;6.90;;;;;;;19.46;100.00;100065.31;5078895;28;20185;-69
2023/08/19 05:35:35;;;;;;;10.63;6.35;;;;;;;19.50;100.00;100053.00;5074543;28;20075;-69
2023/08/19 05:38:00;;;;;;;8.77;5.88;;;;;;;19.59;100.00;100053.47;5074521;28;20037;-69
2023/08/19 05:40:26;;;;;;;12.63;6.18;;;;;;;19.66;100.00;100059.56;5074232;28;20553;-69
2023/08/19 05:42:51;;;;;;;14.70;6.38;;;;;;;19.70;100.00;100058.06;5074456;28;20048;-69
2023/08/19 05:45:17;;;;;;;12.45;6.13;;;;;;;19.75;100.00;100061.66;5074389;28;20036;-69
2023/08/19 05:47:42;;;;;;;13.38;6.35;;;;;;;19.79;100.00;100056.63;5074404;28;20045;-70
2023/08/19 05:50:08;;;;;;;10.30;6.40;;;;;;;19.85;100.00;100080.00;5074108;28;20041;-69
2023/08/19 05:52:33;;;;;;;12.68;6.72;;;;;;;19.93;100.00;100067.97;5071122;28;20048;-70
2023/08/19 05:54:59;;;;;;;16.33;8.20;;;;;;;20.00;100.00;100076.78;5068517;28;20036;-70
2023/08/19 05:57:24;;;;;;;17.52;9.10;;;;;;;20.08;100.00;100080.97;5067142;28;20708;-70
2023/08/19 05:59:50;;;;;;;21.77;10.70;;;;;;;20.13;100.00;100090.03;5054126;28;20569;-69
2023/08/19 06:02:15;;;;;;;10.85;6.05;;;;;;;20.19;100.00;100094.47;5053994;28;20075;-67
2023/08/19 06:04:40;;;;;;;15.38;6.70;;;;;;;20.26;100.00;100097.84;5054114;28;20041;-70
2023/08/19 06:07:06;;;;;;;10.90;6.72;;;;;;;20.35;100.00;100090.19;5053967;28;20159;-50
2023/08/19 06:09:31;;;;;;;12.02;6.47;;;;;;;20.44;100.00;100090.63;5053735;28;20111;-52
2023/08/19 06:11:57;;;;;;;15.40;6.43;;;;;;;20.55;100.00;100103.31;5053917;28;20029;-48
2023/08/19 06:14:22;;;;;;;13.57;6.07;;;;;;;20.61;100.00;100098.84;5057924;28;20048;-48
2023/08/19 06:16:47;;;;;;;18.58;8.68;;;;;;;20.70;100.00;100106.31;5073817;28;20115;-49
2023/08/19 06:19:13;;;;;;;13.73;7.18;;;;;;;20.78;100.00;100108.59;5073593;28;20371;-48
2023/08/19 06:21:39;;;;;;;15.80;7.18;;;;;;;20.88;100.00;100113.41;5073576;28;20041;-51
2023/08/19 06:24:05;;;;;;;11.32;6.82;;;;;;;20.96;100.00;100104.03;5073831;28;20476;-48
2023/08/19 06:26:30;;;;;;;13.30;6.63;;;;;;;21.06;100.00;100115.03;5073510;28;20028;-52
2023/08/19 06:28:56;;;;;;;10.60;6.25;;;;;;;21.13;100.00;100110.31;5073375;28;20396;-49
2023/08/19 06:31:22;;;;;;;12.55;7.53;;;;;;;21.21;100.00;100107.19;5073611;28;20036;-49
2023/08/19 06:33:50;;;;;;;13.15;6.32;;;;;;;21.33;100.00;100109.84;5073602;28;20051;-55
2023/08/19 06:36:23;;;;;;;12.32;6.47;;;;;;;21.35;100.00;100097.69;5073552;28;20044;-53
2023/08/19 06:38:55;;;;;;;10.43;6.57;;;;;;;21.50;100.00;100107.91;5073214;28;20498;-51
2023/08/19 06:41:22;;;;;;;16.83;7.38;;;;;;;21.60;100.00;100121.63;5073386;28;20111;-51
2023/08/19 06:43:50;;;;;;;13.30;6.57;;;;;;;21.70;100.00;100129.06;5072812;28;20029;-52
2023/08/19 06:46:16;;;;;;;9.43;6.18;;;;;;;21.79;100.00;100133.00;5073099;28;20047;-53
2023/08/19 06:48:43;;;;;;;12.82;6.63;;;;;;;21.87;100.00;100135.28;5072868;28;20033;-53
2023/08/19 06:51:09;;;;;;;12.43;6.73;;;;;;;21.94;100.00;100129.69;5073167;28;20113;-52
2023/08/19 06:53:35;;;;;;;14.73;7.30;;;;;;;22.07;100.00;100133.94;5073039;28;20507;-49
2023/08/19 06:56:17;;;;;;;14.32;6.55;;;;;;;22.16;100.00;100129.72;5072969;28;20048;-53
2023/08/19 06:58:52;;;;;;;12.95;7.75;;;;;;;22.30;100.00;100141.84;5072860;28;20158;-48
2023/08/19 07:01:24;;;;;;;12.45;8.48;;;;;;;22.47;100.00;100147.19;5072937;28;20472;-53
2023/08/19 07:03:52;;;;;;;18.60;8.77;;;;;;;22.70;100.00;100144.22;5072983;28;20048;-50
2023/08/19 07:06:20;;;;;;;13.68;9.07;;;;;;;22.89;99.40;100146.59;5072695;28;20036;-53
2023/08/19 07:08:45;;;;;;;;;;;;;;;22.98;97.93;100148.59;5073025;28;20131;-50
2023/08/19 07:11:12;;;;;;;13.90;7.80;;;;;;;23.06;98.39;100160.06;5072677;28;20023;-51
2023/08/19 07:13:37;;;;;;;13.13;7.80;;;;;;;23.13;99.57;100163.38;5072701;28;20115;-49
2023/08/19 07:16:04;;;;;;;14.20;8.27;;;;;;;23.16;100.00;100155.53;5072578;28;20556;-50
2023/08/19 07:18:53;;;;;;;15.93;8.15;;;;;;;23.28;96.32;100158.91;5072415;28;20081;-50
2023/08/19 07:21:21;;;;;;;9.73;7.57;;;;;;;23.43;94.03;100155.50;5072570;28;20078;-54
2023/08/19 07:23:47;;;;;;;16.63;7.53;;;;;;;23.43;94.26;100160.94;5072549;28;20062;-53
2023/08/19 07:26:14;;;;;;;11.65;7.53;;;;;;;23.51;93.49;100171.31;5072362;28;20036;-54
2023/08/19 07:28:39;;;;;;;9.83;7.23;;;;;;;23.56;94.28;100176.78;5072301;28;20044;-50
2023/08/19 07:31:05;;;;;;;11.38;8.10;;;;;;;23.59;95.06;100180.88;5072182;28;20310;-54
2023/08/19 07:33:30;;;;;;;12.90;8.57;;;;;;;23.68;91.71;100181.25;5072336;28;20032;-54
2023/08/19 07:35:56;;;;;;;13.93;7.43;;;;;;;23.80;92.88;100181.91;5072225;28;20621;-52
2023/08/19 07:38:21;;;;;;;11.55;7.10;;;;;;;23.85;93.47;100173.75;5072149;28;20070;-51
2023/08/19 07:40:47;;;;;;;9.35;7.13;;;;;;;23.96;92.56;100178.19;5072043;28;20372;-53
2023/08/19 07:43:12;;;;;;;15.88;7.20;;;;;;;24.24;90.40;100170.69;5072218;28;20411;-51
2023/08/19 07:45:38;;;;;;;13.05;7.00;;;;;;;24.28;88.89;100166.38;5072070;28;20182;-50
2023/08/19 07:48:03;;;;;;;11.55;6.97;;;;;;;24.39;87.53;100161.78;5072173;28;20048;-53
2023/08/19 07:50:29;;;;;;;15.07;6.78;;;;;;;24.55;86.44;100168.94;5071805;28;20044;-54
2023/08/19 07:52:54;;;;;;;11.52;7.32;;;;;;;24.58;84.58;100171.97;5072166;28;20133;-49
2023/08/19 07:55:20;;;;;;;10.52;6.82;;;;;;;24.69;85.75;100174.72;5071688;28;20044;-52
2023/08/19 07:57:45;;;;;;;13.57;7.40;;;;;;;24.73;84.90;100182.09;5072028;28;20072;-52
2023/08/19 08:00:11;;;;;;;10.98;6.93;;;;;;;24.71;86.88;100180.69;5071616;28;20050;-51
2023/08/19 08:02:39;;;;;;;11.25;7.35;;;;;;;24.73;87.82;100179.34;5071124;28;20036;-53
2023/08/19 08:05:06;;;;;;;10.32;6.70;;;;;;;24.88;84.36;100184.84;5070606;28;20421;-50
2023/08/19 08:07:31;;;;;;;9.43;7.30;;;;;;;24.93;86.14;100181.31;5070523;28;20037;-54
2023/08/19 08:09:56;;;;;;;11.48;7.15;;;;;;;25.06;82.24;100178.09;5070213;28;20044;-49
2023/08/19 08:12:22;;;;;;;12.23;6.47;;;;;;;25.15;82.27;100181.91;5071619;28;20045;-50
2023/08/19 08:14:47;;;;;;;11.70;6.70;;;;;;;25.13;83.10;100184.09;5071724;28;20056;-54
2023/08/19 08:17:13;;;;;;;17.35;7.00;;;;;;;25.18;84.78;100177.84;5071405;28;20051;-50
2023/08/19 08:19:38;;;;;;;10.50;6.40;;;;;;;25.26;86.34;100181.94;5071363;28;20445;-50
2023/08/19 08:22:05;;;;;;;8.43;5.82;;;;;;;25.30;85.14;100183.84;5071399;28;20040;-50
2023/08/19 08:24:30;;;;;;;10.27;6.55;;;;;;;25.38;83.79;100186.03;5071602;28;20032;-50
2023/08/19 08:26:56;;;;;;;12.65;7.20;;;;;;;25.63;83.67;100182.47;5071384;28;20372;-50
2023/08/19 08:29:21;;;;;;;11.18;6.20;;;;;;;25.84;78.09;100190.66;5071362;28;20049;-53
2023/08/19 08:31:46;;;;;;;10.00;6.18;;;;;;;26.03;79.66;100186.25;5071502;28;20039;-49
2023/08/19 08:34:12;;;;;;;9.73;5.53;;;;;;;26.21;71.22;100179.34;5071563;28;20429;-53
2023/08/19 08:36:37;;;;;;;10.10;5.68;;;;;;;26.39;72.07;100186.13;5071392;28;20048;-51
2023/08/19 08:39:03;;;;;;;9.13;5.80;;;;;;;26.45;68.90;100180.38;5071045;28;20063;-66
2023/08/19 08:41:29;;;;;;;7.65;5.65;;;;;;;26.73;71.87;100178.91;5071400;28;20120;-66
2023/08/19 08:43:57;;;;;;;12.85;6.00;;;;;;;26.82;68.56;100179.13;5071409;28;20044;-65
2023/08/19 08:46:23;;;;;;;8.02;5.45;;;;;;;27.05;68.18;100183.09;5071323;28;20045;-66
2023/08/19 08:48:49;;;;;;;10.68;5.57;;;;;;;27.35;71.07;100183.97;5071084;28;20150;-66
2023/08/19 08:51:16;;;;;;;8.15;4.95;;;;;;;27.50;61.24;100178.34;5071277;28;20491;-65
2023/08/19 08:53:41;;;;;;;9.02;5.22;;;;;;;27.67;60.19;100173.28;5071344;28;20043;-65
2023/08/19 08:56:07;;;;;;;9.18;5.38;;;;;;;27.82;61.99;100178.63;5071101;28;20040;-67
2023/08/19 08:58:33;;;;;;;8.70;5.07;;;;;;;28.05;62.42;100177.03;5071008;28;20107;-66
2023/08/19 09:01:03;;;;;;;8.45;5.25;;;;;;;28.35;66.00;100173.13;5071264;28;20020;-67
2023/08/19 09:03:32;;;;;;;9.80;5.00;;;;;;;28.51;63.85;100171.03;5071341;28;20040;-68
2023/08/19 09:06:02;;;;;;;8.95;5.25;;;;;;;28.71;65.80;100183.63;5071001;28;20027;-67
2023/08/19 09:08:38;;;;;;;7.82;5.13;;;;;;;28.81;65.20;100185.41;5073150;28;20048;-69
2023/08/19 09:11:10;;;;;;;7.75;5.43;;;;;;;28.91;59.23;100169.66;5074909;28;20555;-66
2023/08/19 09:13:37;;;;;;;7.25;4.45;;;;;;;29.01;57.16;100171.41;5074924;28;20067;-67
2023/08/19 09:16:03;;;;;;;;;;;;;;;29.20;54.18;100169.47;5075234;28;20078;-68
2023/08/19 09:18:29;;;;;;;5.07;4.57;;;;;;;29.29;56.07;100177.84;5073255;28;20345;-68
2023/08/19 09:20:54;;;;;;;10.88;4.63;;;;;;;29.30;53.83;100176.75;5074743;28;20044;-67
2023/08/19 09:23:20;;;;;;;6.47;4.32;;;;;;;29.32;55.77;100177.25;5074700;28;20131;-66
2023/08/19 09:25:46;;;;;;;5.20;4.00;;;;;;;29.22;56.30;100177.44;5074643;28;20032;-66
2023/08/19 09:28:17;;;;;;;4.57;4.07;;;;;;;29.34;56.24;100183.25;5074536;28;20020;-68
2023/08/19 09:30:43;;;;;;;8.52;4.30;;;;;;;29.35;54.27;100184.88;5074312;28;20137;-67
2023/08/19 09:33:08;;;;;;;6.55;4.32;;;;;;;29.40;56.45;100183.97;5074472;28;20123;-66
2023/08/19 09:35:36;;;;;;;9.40;4.25;;;;;;;29.45;56.57;100181.97;5074383;28;20068;-67
2023/08/19 09:38:02;;;;;;;7.38;4.40;;;;;;;29.44;56.03;100177.59;5074341;28;20079;-67
2023/08/19 09:40:28;;;;;;;8.40;4.50;;;;;;;29.62;52.87;100183.38;5074121;28;20037;-67
2023/08/19 09:42:56;;;;;;;5.60;4.15;;;;;;;29.77;53.58;100180.34;5074381;28;20028;-67
2023/08/19 09:45:25;;;;;;;6.60;4.28;;;;;;;29.89;52.08;100175.19;5073040;28;20037;-68
2023/08/19 09:47:52;;;;;;;6.93;4.10;;;;;;;30.15;52.13;100177.47;5074266;28;20033;-67
2023/08/19 09:50:22;;;;;;;7.13;4.30;;;;;;;30.43;53.39;100175.50;5074023;28;20032;-68
2023/08/19 09:52:58;;;;;;;11.80;6.03;;;;;;;30.63;50.66;100177.81;5074189;28;20028;-67
2023/08/19 09:55:29;;;;;;;6.72;5.07;;;;;;;30.80;51.73;100172.50;5074071;28;20420;-68
2023/08/19 09:57:55;;;;;;;9.43;4.22;;;;;;;30.83;49.54;100171.06;5074079;28;20115;-67
2023/08/19 10:00:21;;;;;;;5.03;3.70;;;;;;;31.18;48.60;100171.38;5073945;28;20512;-68
2023/08/19 10:02:46;;;;;;;7.38;4.18;;;;;;;31.41;44.93;100173.00;5072833;28;20067;-68
2023/08/19 10:05:12;;;;;;;4.40;3.50;;;;;;;31.86;46.21;100175.72;5073805;28;20064;-68
2023/08/19 10:07:40;;;;;;;7.03;4.23;;;;;;;31.99;44.90;100183.06;5074153;28;20119;-68
2023/08/19 10:10:11;;;;;;;5.53;4.32;;;;;;;32.02;46.10;100187.94;5073611;28;20048;-67
2023/08/19 10:12:40;;;;;;;5.25;4.00;;;;;;;32.18;48.04;100196.59;5073972;28;20036;-68
2023/08/19 10:15:08;;;;;;;4.82;3.83;;;;;;;32.13;47.10;100200.28;5073877;28;20108;-68
2023/08/19 10:17:39;;;;;;;6.88;3.80;;;;;;;32.29;48.60;100202.63;5073608;28;20052;-68
2023/08/19 10:20:10;;;;;;;5.35;4.00;;;;;;;32.18;45.83;100201.28;5073273;28;20075;-68
2023/08/19 10:22:37;;;;;;;6.97;3.67;;;;;;;31.94;48.48;100205.22;5073690;28;20040;-67
2023/08/19 10:25:05;;;;;;;7.80;5.07;;;;;;;31.98;47.77;100210.94;5073466;28;20029;-67
2023/08/19 10:27:31;;;;;;;8.48;4.18;;;;;;;31.86;49.21;100203.25;5073541;28;20098;-67
2023/08/19 10:29:58;;;;;;;6.07;3.87;;;;;;;31.88;46.31;100212.81;5073146;28;20049;-67
2023/08/19 10:32:31;;;;;;;5.88;3.92;;;;;;;31.99;48.85;100199.59;5073386;28;20111;-67
2023/08/19 10:35:12;;;;;;;7.30;4.10;;;;;;;31.93;52.02;100206.38;5073287;28;20051;-67
2023/08/19 10:37:49;;;;;;;6.38;4.13;;;;;;;32.00;50.83;100198.44;5073379;28;20032;-67
2023/08/19 10:40:21;;;;;;;5.68;4.53;;;;;;;32.10;53.40;100203.69;5073040;28;20044;-67
2023/08/19 10:42:59;;;;;;;6.65;4.13;;;;;;;32.07;51.30;100204.31;5073237;28;20036;-67
2023/08/19 10:45:35;;;;;;;7.10;4.50;;;;;;;31.99;51.43;100205.09;5071883;28;20072;-67
2023/08/19 10:48:01;;;;;;;7.27;4.13;;;;;;;31.78;51.98;100202.09;5073072;28;20039;-67
2023/08/19 10:50:34;;;;;;;5.38;4.57;;;;;;;31.77;53.62;100216.16;5072772;28;20047;-67
2023/08/19 10:53:01;;;;;;;6.38;4.50;;;;;;;31.58;55.29;100208.91;5072958;28;20032;-66
2023/08/19 10:55:26;;;;;;;6.10;4.72;;;;;;;31.49;55.30;100209.97;5072790;28;20060;-67
2023/08/19 10:57:53;;;;;;;4.83;4.10;;;;;;;31.47;52.43;100209.47;5072861;28;20063;-67
2023/08/19 11:00:23;;;;;;;;;;;;;;;31.46;52.78;100216.09;5073162;28;20476;-67
2023/08/19 11:02:49;;;;;;;6.75;4.55;;;;;;;31.39;55.39;100216.53;5072896;28;19912;-67
2023/08/19 11:05:23;;;;;;;6.83;4.50;;;;;;;31.31;58.01;100220.06;5072659;28;20035;-67
2023/08/19 11:07:50;;;;;;;5.90;5.20;;;;;;;31.44;59.21;100221.94;5072704;28;20526;-67
2023/08/19 11:10:15;;;;;;;9.05;4.68;;;;;;;31.32;58.24;100218.91;5072365;28;20555;-67
2023/08/19 11:12:45;;;;;;;9.97;4.60;;;;;;;31.78;56.62;100224.09;5072530;28;20128;-67
2023/08/19 11:15:10;;;;;;;6.45;4.38;;;;;;;32.44;57.59;100231.72;5072466;28;20041;-67
2023/08/19 11:17:35;;;;;;;10.23;4.73;;;;;;;32.68;54.72;100224.66;5072520;28;20051;-67
2023/08/19 11:20:12;;;;;;;5.97;5.03;;;;;;;33.02;53.30;100225.84;5071927;28;20032;-67
2023/08/19 11:22:47;;;;;;;10.32;5.03;;;;;;;33.66;52.11;100217.72;5059025;28;20043;-67
2023/08/19 11:25:14;;;;;;;5.75;4.25;;;;;;;34.47;47.41;100213.22;5053258;28;20049;-68
2023/08/19 11:27:39;;;;;;;6.63;4.28;;;;;;;34.53;47.27;100215.44;5052363;28;20047;-67
2023/08/19 11:30:08;;;;;;;7.10;4.57;;;;;;;34.54;44.86;100221.78;5051034;28;20543;-68
2023/08/19 11:32:33;;;;;;;5.40;3.90;;;;;;;34.67;44.89;100217.97;5052143;28;20065;-68
2023/08/19 11:34:58;;;;;;;6.83;4.13;;;;;;;34.38;46.00;100221.53;5052092;28;20472;-68
2023/08/19 11:37:27;;;;;;;3.90;3.50;;;;;;;34.23;44.51;100224.84;5051960;28;20040;-68
2023/08/19 11:39:53;;;;;;;8.57;4.00;;;;;;;34.19;46.01;100219.19;5050813;28;20440;-67
2023/08/19 11:42:18;;;;;;;8.63;3.60;;;;;;;33.95;45.45;100224.47;5051231;28;20108;-67
2023/08/19 11:44:44;;;;;;;5.87;3.60;;;;;;;33.82;46.90;100226.28;5052028;28;20102;-67
2023/08/19 11:47:11;;;;;;;5.77;3.73;;;;;;;33.60;47.21;100223.75;5051885;28;20132;-67
2023/08/19 11:49:37;;;;;;;5.60;3.97;;;;;;;33.70;45.98;100224.19;5049987;28;20128;-67
2023/08/19 11:52:02;;;;;;;4.90;3.60;;;;;;;33.36;47.64;100238.81;5051568;28;20072;-67
2023/08/19 11:54:28;;;;;;;4.90;3.40;;;;;;;33.30;46.26;100239.31;5051924;28;20051;-67
2023/08/19 11:56:55;;;;;;;5.17;3.57;;;;;;;32.99;46.56;100248.56;5051815;28;20074;-67
2023/08/19 11:59:29;;;;;;;5.38;3.53;;;;;;;32.96;47.22;100251.16;5050148;28;20052;-67
2023/08/19 12:01:56;;;;;;;5.47;3.65;;;;;;;32.58;46.90;100259.97;5051586;28;20470;-69
2023/08/19 12:04:21;;;;;;;;;;;;;;;32.31;47.38;100263.75;5052051;28;20111;-67
2023/08/19 12:06:47;;;;;;;5.90;3.43;;;;;;;32.29;47.06;100263.25;5051556;28;20007;-68
2023/08/19 12:09:18;;;;;;;5.70;4.07;;;;;;;31.98;49.12;100274.28;5055587;28;20037;-68
2023/08/19 12:11:47;;;;;;;5.93;3.67;;;;;;;31.95;47.44;100272.97;5058672;28;20033;-67
2023/08/19 12:14:12;;;;;;;7.18;3.80;;;;;;;31.69;47.87;100277.44;5056784;28;20124;-67
2023/08/19 12:16:38;;;;;;;6.07;3.70;;;;;;;31.55;48.26;100275.56;5059585;28;20115;-67
2023/08/19 12:19:03;;;;;;;5.33;3.87;;;;;;;31.39;50.11;100282.59;5054862;28;20072;-67
2023/08/19 12:21:29;;;;;;;5.33;4.03;;;;;;;31.16;52.05;100284.44;5059865;28;20033;-67
2023/08/19 12:23:54;;;;;;;6.27;3.70;;;;;;;31.18;51.91;100287.72;5057238;28;20313;-67
2023/08/19 12:26:20;;;;;;;4.77;3.73;;;;;;;30.96;50.69;100291.22;5057708;28;20040;-67
2023/08/19 12:28:45;;;;;;;6.27;4.00;;;;;;;30.77;50.92;100288.56;5057720;28;20517;-67
2023/08/19 12:31:10;;;;;;;6.27;3.70;;;;;;;30.76;51.83;100289.72;5056694;28;20040;-67
2023/08/19 12:33:36;;;;;;;4.77;3.93;;;;;;;30.76;51.96;100286.16;5059342;28;20033;-68
2023/08/19 12:36:02;;;;;;;5.68;4.20;;;;;;;30.58;51.99;100290.59;5055285;28;20116;-68
2023/08/19 12:38:28;;;;;;;4.80;4.23;;;;;;;30.44;52.63;100296.09;5058730;28;20037;-68
2023/08/19 12:40:53;;;;;;;9.47;6.30;;;;;;;30.18;53.72;100300.44;5056960;28;20033;-68
2023/08/19 12:43:19;;;;;;;6.57;4.30;;;;;;;30.16;53.52;100294.44;5060220;28;20639;-68
2023/08/19 12:45:44;;;;;;;7.80;4.35;;;;;;;30.08;53.37;100298.66;5062368;28;20032;-68
2023/08/19 12:48:10;;;;;;;5.70;5.10;;;;;;;30.05;53.34;100301.19;5060400;28;20052;-68
2023/08/19 12:50:36;;;;;;;8.10;5.80;;;;;;;29.86;55.17;100302.03;5059972;28;20056;-68
2023/08/19 12:53:02;;;;;;;7.10;4.57;;;;;;;29.82;55.23;100302.97;5062686;28;20079;-68
2023/08/19 12:55:28;;;;;;;6.57;4.38;;;;;;;29.79;55.79;100303.56;5062867;28;20127;-68
2023/08/19 12:57:55;;;;;;;5.20;4.40;;;;;;;29.74;56.72;100304.47;5060935;28;20378;-68
2023/08/19 13:00:26;;;;;;;6.47;4.80;;;;;;;29.68;55.94;100305.66;5060983;28;20035;-68
2023/08/19 13:02:51;;;;;;;7.38;4.93;;;;;;;29.62;57.50;100306.84;5061356;28;20486;-68
2023/08/19 13:05:17;;;;;;;5.60;4.60;;;;;;;29.65;56.97;100307.06;5060833;28;20056;-68
2023/08/19 13:07:43;;;;;;;5.65;4.47;;;;;;;29.57;57.84;100310.50;5062289;28;20032;-68
2023/08/19 13:10:10;;;;;;;5.83;4.13;;;;;;;29.52;59.08;100317.97;5059655;28;20514;-68
2023/08/19 13:12:37;;;;;;;5.93;4.00;;;;;;;29.52;59.41;100315.22;5065348;28;20040;-58
2023/08/19 13:15:03;;;;;;;5.78;4.60;;;;;;;29.42;59.92;100318.94;5065590;28;20063;-69
2023/08/19 13:17:29;;;;;;;6.10;4.47;;;;;;;29.31;62.70;100321.00;5058649;28;20041;-69
2023/08/19 13:19:54;;;;;;;7.10;4.35;;;;;;;29.32;61.75;100327.28;5060013;28;20090;-68
2023/08/19 13:22:21;;;;;;;8.18;4.28;;;;;;;29.29;62.68;100330.63;5059671;28;20036;-69
2023/08/19 13:24:52;;;;;;;6.05;4.40;;;;;;;29.22;63.56;100327.44;5060334;28;20013;-68
2023/08/19 13:27:18;;;;;;;8.95;4.40;;;;;;;29.17;63.23;100328.31;5060545;28;20115;-68
2023/08/19 13:29:44;;;;;;;6.55;4.97;;;;;;;29.14;64.93;100329.72;5059935;28;20623;-69
2023/08/19 13:32:10;;;;;;;4.25;3.85;;;;;;;29.07;63.54;100322.97;5060184;28;20041;-69
2023/08/19 13:34:36;;;;;;;4.97;4.43;;;;;;;29.05;64.17;100330.69;5060549;28;20025;-69
2023/08/19 13:37:03;;;;;;;4.70;4.18;;;;;;;29.01;63.97;100327.69;5060209;28;20690;-68
2023/08/19 13:39:29;;;;;;;7.85;4.80;;;;;;;28.98;64.14;100335.72;5059841;28;20112;-67
2023/08/19 13:41:55;;;;;;;6.67;4.80;;;;;;;28.96;65.66;100337.94;5064976;28;20521;-68
2023/08/19 13:44:25;;;;;;;10.13;4.57;;;;;;;28.89;65.94;100341.00;5068584;28;20032;-68
2023/08/19 13:46:51;;;;;;;5.63;4.90;;;;;;;28.86;69.34;100345.13;5073564;28;20146;-68
2023/08/19 13:49:16;;;;;;;6.40;4.60;;;;;;;28.90;71.00;100343.44;5073749;28;20028;-68
2023/08/19 13:51:42;;;;;;;8.25;5.00;;;;;;;28.82;71.33;100337.78;5073634;28;20549;-67
2023/08/19 13:54:07;;;;;;;5.53;4.82;;;;;;;28.78;68.79;100340.28;5073392;28;20114;-68
2023/08/19 13:56:33;;;;;;;6.70;5.18;;;;;;;28.80;67.66;100346.28;5073700;28;20032;-69
2023/08/19 13:58:58;;;;;;;7.07;6.07;;;;;;;28.81;68.16;100347.91;5055758;28;20036;-68
2023/08/19 14:01:23;;;;;;;10.35;5.68;;;;;;;28.81;67.98;100353.41;5073740;28;20490;-68
2023/08/19 14:03:49;;;;;;;9.05;6.00;;;;;;;28.79;68.62;100354.81;5073878;28;20479;-68
2023/08/19 14:06:14;;;;;;;8.10;5.35;;;;;;;28.82;72.05;100359.69;5073599;28;20040;-68
2023/08/19 14:08:40;;;;;;;9.13;5.18;;;;;;;28.74;70.15;100355.69;5073442;28;20040;-67
2023/08/19 14:11:08;;;;;;;6.78;4.90;;;;;;;28.81;72.83;100356.13;5073307;28;20040;-68
2023/08/19 14:13:33;;;;;;;7.70;5.20;;;;;;;28.86;70.66;100356.09;5073589;28;20130;-68
2023/08/19 14:15:59;;;;;;;7.00;5.03;;;;;;;28.83;74.61;100351.19;5072943;28;20060;-68
2023/08/19 14:18:24;;;;;;;6.38;5.30;;;;;;;28.92;73.15;100360.44;5073483;28;20049;-68
2023/08/19 14:20:50;;;;;;;6.97;5.40;;;;;;;29.01;71.52;100359.78;5073093;28;20020;-68
2023/08/19 14:23:15;;;;;;;7.68;5.07;;;;;;;29.08;71.29;100352.84;5073311;28;20441;-69
2023/08/19 14:25:41;;;;;;;6.13;4.63;;;;;;;29.28;72.54;100349.03;5073150;28;20580;-68
2023/08/19 14:28:06;;;;;;;8.55;4.85;;;;;;;29.39;68.63;100350.50;5073269;28;20082;-68
2023/08/19 14:30:31;;;;;;;6.18;5.18;;;;;;;29.55;69.02;100348.41;5072959;28;20499;-69
2023/08/19 14:32:57;;;;;;;6.22;4.60;;;;;;;29.82;66.57;100344.97;5073112;28;20044;-69
2023/08/19 14:35:23;;;;;;;8.00;4.75;;;;;;;29.99;63.20;100342.50;5073191;28;20037;-68
2023/08/19 14:37:48;;;;;;;7.10;4.45;;;;;;;30.13;61.17;100345.31;5073003;28;20060;-68
2023/08/19 14:40:14;;;;;;;8.27;4.95;;;;;;;30.22;63.88;100339.91;5072792;28;20048;-68
2023/08/19 14:42:40;;;;;;;6.63;4.93;;;;;;;30.40;60.55;100354.72;5073064;28;20028;-69
2023/08/19 14:45:06;;;;;;;8.17;4.53;;;;;;;30.37;58.38;100339.63;5072922;28;20066;-69
2023/08/19 14:47:33;;;;;;;5.20;4.68;;;;;;;30.36;62.30;100346.25;5072789;28;20040;-68
2023/08/19 14:49:58;;;;;;;8.40;4.55;;;;;;;30.42;61.81;100345.03;5072803;28;20189;-68
2023/08/19 14:52:24;;;;;;;5.28;4.53;;;;;;;30.48;60.89;100352.06;5071212;28;20149;-68
2023/08/19 14:54:50;;;;;;;7.68;4.50;;;;;;;30.47;60.61;100355.13;5072882;28;20127;-69
2023/08/19 14:57:15;;;;;;;6.45;4.53;;;;;;;30.39;65.02;100351.16;5072788;28;20035;-68
2023/08/19 14:59:41;;;;;;;10.82;4.72;;;;;;;30.30;63.68;100350.22;5072621;28;20060;-68
2023/08/19 15:02:07;;;;;;;5.55;4.88;;;;;;;30.26;63.37;100357.44;5072644;28;20047;-69
2023/08/19 15:04:33;;;;;;;7.65;4.65;;;;;;;30.27;63.36;100348.06;5072442;28;20039;-68
2023/08/19 15:06:58;;;;;;;6.27;4.57;;;;;;;30.15;63.22;100345.00;5070641;28;20037;-68
2023/08/19 15:09:24;;;;;;;7.35;4.55;;;;;;;30.15;64.14;100358.72;5072211;28;20063;-69
2023/08/19 15:11:49;;;;;;;7.63;4.95;;;;;;;30.21;63.84;100363.03;5072628;28;20036;-68
2023/08/19 15:14:15;;;;;;;10.13;4.70;;;;;;;30.17;63.72;100359.22;5072601;28;20079;-69
2023/08/19 15:16:40;;;;;;;5.15;4.40;;;;;;;30.12;63.98;100359.31;5072436;28;20551;-68
2023/08/19 15:19:09;;;;;;;6.25;5.00;;;;;;;30.10;65.42;100356.88;5072175;28;20514;-68
2023/08/19 15:21:36;;;;;;;5.93;4.45;;;;;;;30.12;64.33;100359.31;5072263;28;20040;-69
2023/08/19 15:24:03;;;;;;;14.00;6.47;;;;;;;30.14;65.41;100351.59;5069698;28;20666;-55
2023/08/19 15:26:29;;;;;;;7.47;4.60;;;;;;;30.13;65.95;100349.97;5073632;28;20032;-57
2023/08/19 15:28:56;;;;;;;6.40;4.60;;;;;;;30.12;64.44;100353.81;5080084;28;20406;-58
2023/08/19 15:31:25;;;;;;;6.05;4.55;;;;;;;30.02;65.95;100352.03;5076844;28;20124;-54
2023/08/19 15:33:53;;;;;;;8.02;4.28;;;;;;;29.92;67.71;100355.75;5076749;28;20064;-53
2023/08/19 15:36:18;;;;;;;7.45;4.38;;;;;;;29.92;66.88;100349.44;5076559;28;20036;-58
2023/08/19 15:38:44;;;;;;;5.57;4.32;;;;;;;29.94;66.78;100356.28;5079734;28;20122;-69
2023/08/19 15:41:09;;;;;;;5.43;4.57;;;;;;;29.97;67.03;100355.69;5078202;28;20367;-68